Time;durP1;ratioP1;P1;durP2;ratioP2;P2;SDS_P1;SDS_P2;PMS_P1;PMS_P2;Temp;Humidity;BMP_temperature;BMP_pressure;BME280_temperature;BME280_humidity;BME280_pressure;Samples;Min_cycle;Max_cycle;Signal;HPM_P1;HPM_P2
2021/01/04 00:02:02;;;;;;;8.20;5.80;;;3.50;99.90;;;;;;5003078;28;20549;-58
2021/01/04 00:05:04;;;;;;;9.00;5.90;;;3.40;99.90;;;;;;5002750;28;20528;-60
2021/01/04 00:07:56;;;;;;;8.67;5.20;;;3.40;99.90;;;;;;5001316;28;20491;-58
2021/01/04 00:10:33;;;;;;;5.47;3.90;;;3.40;99.90;;;;;;5002407;28;20460;-59
2021/01/04 00:13:06;;;;;;;6.77;4.90;;;3.40;99.90;;;;;;5002475;28;20509;-60
2021/01/04 00:15:38;;;;;;;8.70;5.17;;;3.40;99.90;;;;;;5002043;28;20469;-57
2021/01/04 00:18:29;;;;;;;8.10;4.70;;;3.40;99.90;;;;;;5002564;28;20446;-58
2021/01/04 00:21:00;;;;;;;8.40;4.80;;;3.40;99.90;;;;;;4981892;28;20465;-59
2021/01/04 00:23:37;;;;;;;7.43;5.03;;;3.40;99.90;;;;;;4981324;28;20557;-60
2021/01/04 00:26:10;;;;;;;7.33;4.77;;;3.40;99.90;;;;;;4981475;28;20534;-57
2021/01/04 00:28:39;;;;;;;8.30;5.00;;;3.40;99.90;;;;;;4982747;28;20911;-58
2021/01/04 00:31:08;;;;;;;7.03;3.93;;;3.40;99.90;;;;;;4981859;28;20529;-60
2021/01/04 00:33:39;;;;;;;6.20;4.13;;;3.40;99.90;;;;;;4982005;28;20475;-59
2021/01/04 00:36:12;;;;;;;6.07;5.07;;;3.40;99.90;;;;;;4981465;28;20849;-59
2021/01/04 00:39:12;;;;;;;7.67;4.90;;;3.40;99.90;;;;;;4981517;28;20493;-55
2021/01/04 00:41:55;;;;;;;6.57;4.60;;;3.40;99.90;;;;;;5000336;28;20558;-56
2021/01/04 00:44:26;;;;;;;5.27;4.33;;;3.50;99.90;;;;;;5000368;28;20478;-60
2021/01/04 00:47:02;;;;;;;5.83;4.40;;;3.40;99.90;;;;;;4999466;28;20970;-60
2021/01/04 00:49:32;;;;;;;6.77;4.83;;;3.40;99.90;;;;;;5003828;28;20903;-60
2021/01/04 00:52:14;;;;;;;9.90;5.40;;;3.40;99.90;;;;;;5001562;28;20524;-55
2021/01/04 00:54:54;;;;;;;8.13;5.20;;;3.40;99.90;;;;;;5000906;28;20438;-59
2021/01/04 00:57:51;;;;;;;6.53;5.23;;;3.40;99.90;;;;;;5001704;28;20641;-54
2021/01/04 01:00:23;;;;;;;6.07;4.23;;;3.40;99.90;;;;;;5002252;28;20496;-57
2021/01/04 01:03:21;;;;;;;6.47;4.97;;;3.40;99.90;;;;;;5001198;28;20565;-58
2021/01/04 01:05:58;;;;;;;5.70;4.70;;;3.40;99.90;;;;;;4980765;28;20446;-59
2021/01/04 01:08:28;;;;;;;5.80;4.60;;;3.40;99.90;;;;;;5001136;28;20512;-59
2021/01/04 01:10:58;;;;;;;6.33;4.67;;;3.40;99.90;;;;;;5001204;28;20444;-59
2021/01/04 01:14:00;;;;;;;6.20;4.57;;;3.40;99.90;;;;;;5001512;28;20509;-60
2021/01/04 01:17:18;;;;;;;8.53;5.30;;;3.40;99.90;;;;;;4990667;28;20594;-56
2021/01/04 01:19:47;;;;;;;6.77;4.30;;;3.40;99.90;;;;;;5002123;28;20805;-58
2021/01/04 01:22:19;;;;;;;8.30;5.30;;;3.40;99.90;;;;;;4988025;28;20571;-56
2021/01/04 01:24:47;;;;;;;9.50;4.67;;;3.40;99.90;;;;;;4997687;28;20465;-55
2021/01/04 01:27:43;;;;;;;7.80;5.20;;;3.40;99.90;;;;;;5004044;28;20473;-59
2021/01/04 01:30:37;;;;;;;6.80;4.07;;;3.40;99.90;;;;;;5004064;28;20521;-56
2021/01/04 01:33:20;;;;;;;8.73;5.63;;;3.40;99.90;;;;;;4988449;28;20500;-56
2021/01/04 01:36:03;;;;;;;7.97;5.80;;;3.40;99.90;;;;;;4984623;28;20481;-59
2021/01/04 01:39:09;;;;;;;7.37;4.50;;;3.40;99.90;;;;;;4984134;28;20479;-59
2021/01/04 01:42:16;;;;;;;5.10;4.63;;;3.50;99.90;;;;;;4962287;28;20545;-59
2021/01/04 01:44:48;;;;;;;6.20;4.43;;;3.40;99.90;;;;;;4986079;28;21029;-58
2021/01/04 01:47:24;;;;;;;10.67;5.10;;;3.40;99.90;;;;;;4985314;28;20451;-58
2021/01/04 01:50:00;;;;;;;7.93;4.33;;;3.40;99.90;;;;;;4985259;28;20518;-58
2021/01/04 01:52:48;;;;;;;7.13;4.17;;;3.50;99.90;;;;;;4985484;28;20427;-56
2021/01/04 01:55:29;;;;;;;7.83;4.80;;;3.50;99.90;;;;;;4986601;28;20431;-60
2021/01/04 01:58:41;;;;;;;7.00;4.77;;;3.50;99.90;;;;;;4986009;28;20898;-58
2021/01/04 02:01:15;;;;;;;5.07;3.70;;;3.60;99.90;;;;;;4984495;28;20517;-58
2021/01/04 02:03:50;;;;;;;6.27;4.80;;;3.60;99.90;;;;;;4985402;28;20483;-58
2021/01/04 02:06:29;;;;;;;6.03;3.87;;;3.70;99.90;;;;;;4984771;28;20474;-59
2021/01/04 02:09:01;;;;;;;7.37;4.27;;;3.70;99.90;;;;;;4984881;28;20462;-59
2021/01/04 02:11:46;;;;;;;8.07;4.77;;;3.60;99.90;;;;;;4984703;28;20463;-58
2021/01/04 02:14:20;;;;;;;6.27;3.70;;;3.60;99.90;;;;;;4984349;28;20466;-58
2021/01/04 02:17:08;;;;;;;6.00;4.93;;;3.60;99.90;;;;;;4983750;28;20426;-57
2021/01/04 02:19:48;;;;;;;8.50;3.93;;;3.60;99.90;;;;;;4983731;28;20960;-54
2021/01/04 02:22:49;;;;;;;7.13;5.03;;;3.70;99.90;;;;;;4998352;28;20485;-60
2021/01/04 02:25:16;;;;;;;5.23;3.63;;;3.60;99.90;;;;;;5003722;28;20520;-59
2021/01/04 02:27:48;;;;;;;6.90;4.37;;;3.60;99.90;;;;;;5002630;28;20446;-60
2021/01/04 02:30:16;;;;;;;7.33;4.20;;;3.50;99.90;;;;;;5002112;28;20484;-58
2021/01/04 02:32:43;;;;;;;6.00;4.17;;;3.60;99.90;;;;;;5002951;28;20458;-60
2021/01/04 02:35:12;;;;;;;7.57;4.17;;;3.60;99.90;;;;;;5002925;28;20528;-60
2021/01/04 02:37:39;;;;;;;6.67;4.23;;;3.60;99.90;;;;;;4997804;28;20493;-59
2021/01/04 02:40:10;;;;;;;3.77;3.23;;;3.60;99.90;;;;;;4982405;28;20495;-61
2021/01/04 02:42:39;;;;;;;4.63;3.77;;;3.60;99.90;;;;;;4982986;28;20695;-59
2021/01/04 02:45:11;;;;;;;3.50;2.90;;;3.60;99.90;;;;;;4983218;28;20889;-56
2021/01/04 02:48:09;;;;;;;5.60;3.50;;;3.60;99.90;;;;;;4983112;28;20542;-57
2021/01/04 02:50:43;;;;;;;3.20;2.90;;;3.60;99.90;;;;;;4983513;28;20477;-60
2021/01/04 02:53:47;;;;;;;5.40;3.80;;;3.50;99.90;;;;;;4982721;28;20474;-60
2021/01/04 02:56:33;;;;;;;7.40;3.83;;;3.50;99.90;;;;;;4982993;28;20513;-60
2021/01/04 02:59:07;;;;;;;4.00;3.13;;;3.50;99.90;;;;;;4984404;28;20435;-60
2021/01/04 03:01:43;;;;;;;5.50;3.40;;;3.50;99.90;;;;;;4983692;28;20483;-60
2021/01/04 03:04:12;;;;;;;5.83;3.47;;;3.40;99.90;;;;;;4983204;28;20503;-59
2021/01/04 03:06:53;;;;;;;4.43;3.80;;;3.50;99.90;;;;;;4983048;28;20467;-60
2021/01/04 03:09:20;;;;;;;3.60;2.60;;;3.50;99.90;;;;;;4982532;28;20462;-59
2021/01/04 03:11:46;;;;;;;5.70;4.40;;;3.50;99.90;;;;;;4986270;28;20531;-59
2021/01/04 03:14:29;;;;;;;3.93;3.43;;;3.60;99.90;;;;;;4982450;28;20503;-59
2021/01/04 03:17:01;;;;;;;5.20;4.00;;;3.50;99.90;;;;;;4984083;28;20586;-58
2021/01/04 03:19:31;;;;;;;4.40;2.90;;;3.50;99.90;;;;;;4983804;28;20455;-60
2021/01/04 03:22:00;;;;;;;4.40;3.43;;;3.50;99.90;;;;;;4983228;28;20487;-60
2021/01/04 03:24:27;;;;;;;4.90;3.63;;;3.50;99.90;;;;;;4983569;28;20482;-60
2021/01/04 03:27:00;;;;;;;6.40;3.73;;;3.50;99.90;;;;;;4983359;28;20462;-60
2021/01/04 03:29:27;;;;;;;4.10;2.97;;;3.50;99.90;;;;;;4983474;28;20450;-57
2021/01/04 03:31:54;;;;;;;4.40;3.30;;;3.50;99.90;;;;;;4981562;28;20554;-60
2021/01/04 03:34:20;;;;;;;3.77;2.93;;;3.50;99.90;;;;;;4983231;28;20439;-60
2021/01/04 03:36:48;;;;;;;5.47;3.20;;;3.50;99.90;;;;;;4982297;28;20510;-56
2021/01/04 03:39:14;;;;;;;4.77;3.00;;;3.50;99.90;;;;;;4983048;28;20493;-59
2021/01/04 03:41:40;;;;;;;4.63;3.23;;;3.50;99.90;;;;;;4982620;28;20482;-58
2021/01/04 03:44:07;;;;;;;4.87;3.37;;;3.50;99.90;;;;;;4985350;28;20570;-60
2021/01/04 03:46:34;;;;;;;5.00;3.70;;;3.40;99.90;;;;;;4984374;28;20455;-59
2021/01/04 03:49:00;;;;;;;5.20;3.40;;;3.50;99.90;;;;;;4983025;28;20951;-58
2021/01/04 03:51:27;;;;;;;3.77;2.97;;;3.50;99.90;;;;;;4982162;28;20529;-59
2021/01/04 03:53:53;;;;;;;6.80;3.60;;;3.50;99.90;;;;;;4982982;28;20531;-60
2021/01/04 03:56:21;;;;;;;6.90;4.13;;;3.50;99.90;;;;;;4982658;28;20543;-59
2021/01/04 03:58:48;;;;;;;5.50;3.83;;;3.60;99.90;;;;;;4982998;28;20465;-59
2021/01/04 04:01:14;;;;;;;4.07;3.23;;;3.50;99.90;;;;;;4983120;28;20519;-58
2021/01/04 04:03:41;;;;;;;6.40;3.47;;;3.50;99.90;;;;;;4982747;28;20573;-60
2021/01/04 04:06:10;;;;;;;4.70;3.80;;;3.50;99.90;;;;;;4982442;28;20447;-58
2021/01/04 04:08:39;;;;;;;5.57;3.30;;;3.50;99.90;;;;;;4983174;28;20470;-61
2021/01/04 04:11:05;;;;;;;3.33;2.80;;;3.50;99.90;;;;;;4981822;28;20531;-60
2021/01/04 04:13:32;;;;;;;4.60;2.83;;;3.50;99.90;;;;;;4981928;28;20507;-60
2021/01/04 04:15:59;;;;;;;5.37;3.70;;;3.50;99.90;;;;;;4982134;28;20527;-61
2021/01/04 04:18:25;;;;;;;4.80;3.17;;;3.60;99.90;;;;;;4982230;28;20497;-60
2021/01/04 04:20:52;;;;;;;6.53;3.63;;;3.60;99.90;;;;;;4982080;28;20474;-59
2021/01/04 04:23:19;;;;;;;5.80;3.60;;;3.50;99.90;;;;;;4982269;28;20570;-60
2021/01/04 04:25:45;;;;;;;4.43;3.57;;;3.50;99.90;;;;;;5010019;23;20486;-59
2021/01/04 04:28:11;;;;;;;2.63;2.10;;;3.50;99.90;;;;;;5009363;23;20588;-60
2021/01/04 04:30:38;;;;;;;4.53;3.23;;;3.40;99.90;;;;;;5002705;28;20525;-58
2021/01/04 04:33:04;;;;;;;4.17;2.90;;;3.50;99.90;;;;;;5002094;28;20454;-60
2021/01/04 04:35:31;;;;;;;5.53;3.23;;;3.40;99.90;;;;;;5002504;28;20505;-59
2021/01/04 04:37:59;;;;;;;5.00;2.90;;;3.40;99.90;;;;;;5002176;28;20540;-60
2021/01/04 04:40:28;;;;;;;3.90;3.07;;;3.40;99.90;;;;;;5001816;28;20458;-65
2021/01/04 04:42:56;;;;;;;5.53;3.83;;;3.40;99.90;;;;;;5002703;28;20477;-66
2021/01/04 04:45:23;;;;;;;4.13;3.67;;;3.40;99.90;;;;;;5001064;28;20453;-64
2021/01/04 04:48:08;;;;;;;6.00;3.30;;;3.40;99.90;;;;;;5001539;28;20553;-65
2021/01/04 04:51:04;;;;;;;4.90;3.50;;;3.40;99.90;;;;;;5000519;28;20856;-66
2021/01/04 04:53:54;;;;;;;5.20;3.67;;;3.40;99.90;;;;;;4996654;28;20967;-63
2021/01/04 04:56:54;;;;;;;4.30;3.40;;;3.30;99.90;;;;;;5001244;28;20517;-65
2021/01/04 04:59:30;;;;;;;6.10;3.60;;;3.30;99.90;;;;;;5001125;28;20438;-64
2021/01/04 05:02:06;;;;;;;5.57;3.10;;;3.30;99.90;;;;;;5001658;28;20583;-65
2021/01/04 05:05:04;;;;;;;5.87;3.67;;;3.30;99.90;;;;;;5004962;28;20937;-64
2021/01/04 05:07:41;;;;;;;5.13;3.30;;;3.30;99.90;;;;;;5005394;28;20480;-64
2021/01/04 05:10:10;;;;;;;4.47;3.00;;;3.30;99.90;;;;;;5004995;28;20544;-66
2021/01/04 05:12:42;;;;;;;6.10;2.90;;;3.30;99.90;;;;;;5006278;28;20537;-65
2021/01/04 05:15:24;;;;;;;3.03;2.70;;;3.30;99.90;;;;;;5005637;28;20514;-64
2021/01/04 05:18:14;;;;;;;6.60;3.00;;;3.30;99.90;;;;;;5005309;28;20546;-64
2021/01/04 05:21:10;;;;;;;3.73;2.97;;;3.30;99.90;;;;;;5005935;28;20521;-64
2021/01/04 05:24:15;;;;;;;4.07;3.07;;;3.30;99.90;;;;;;5005308;28;20534;-64
2021/01/04 05:27:26;;;;;;;4.30;2.97;;;3.30;99.90;;;;;;5005602;28;20661;-64
2021/01/04 05:30:19;;;;;;;6.03;3.60;;;3.30;99.90;;;;;;5005762;28;20469;-65
2021/01/04 05:33:14;;;;;;;4.53;2.90;;;3.30;99.90;;;;;;5006446;28;20494;-64
2021/01/04 05:35:43;;;;;;;5.40;3.57;;;3.30;99.90;;;;;;5005828;28;20505;-64
2021/01/04 05:38:14;;;;;;;5.20;3.60;;;3.30;99.90;;;;;;5004886;28;20484;-64
2021/01/04 05:41:08;;;;;;;4.03;3.07;;;3.30;99.90;;;;;;5005567;28;20465;-64
2021/01/04 05:43:52;;;;;;;5.27;3.73;;;3.30;99.90;;;;;;5005384;28;20517;-63
2021/01/04 05:46:25;;;;;;;5.63;3.00;;;3.30;99.90;;;;;;4994420;28;20598;-64
2021/01/04 05:49:07;;;;;;;5.33;3.70;;;3.30;99.90;;;;;;4985483;28;20510;-63
2021/01/04 05:51:37;;;;;;;3.30;2.60;;;3.30;99.90;;;;;;4985938;28;20477;-64
2021/01/04 05:54:05;;;;;;;6.13;4.40;;;3.30;99.90;;;;;;4984952;28;20518;-64
2021/01/04 05:56:32;;;;;;;4.70;2.83;;;3.30;99.90;;;;;;4984972;28;20549;-64
2021/01/04 05:59:13;;;;;;;4.27;3.00;;;3.30;99.90;;;;;;4984145;28;20534;-64
2021/01/04 06:01:41;;;;;;;5.50;3.13;;;3.30;99.90;;;;;;4985807;28;20461;-64
2021/01/04 06:04:10;;;;;;;5.60;3.77;;;3.30;99.90;;;;;;4984703;28;20530;-63
2021/01/04 06:06:49;;;;;;;3.27;2.60;;;3.30;99.90;;;;;;4986095;28;20501;-64
2021/01/04 06:09:17;;;;;;;3.70;2.67;;;3.30;99.90;;;;;;4985394;28;20507;-64
2021/01/04 06:11:48;;;;;;;4.73;3.30;;;3.20;99.90;;;;;;4985264;28;20434;-63
2021/01/04 06:14:15;;;;;;;4.00;2.80;;;3.10;99.90;;;;;;4984409;28;20451;-64
2021/01/04 06:16:44;;;;;;;3.93;3.30;;;3.20;99.90;;;;;;4984913;28;20606;-64
2021/01/04 06:19:15;;;;;;;5.00;3.23;;;3.20;99.90;;;;;;4985429;28;20593;-63
2021/01/04 06:21:47;;;;;;;4.77;3.33;;;3.20;99.90;;;;;;4988101;28;20489;-64
2021/01/04 06:24:24;;;;;;;6.13;3.73;;;3.10;99.90;;;;;;4992490;28;20530;-63
2021/01/04 06:26:55;;;;;;;5.10;3.50;;;3.10;99.90;;;;;;4985188;28;20844;-63
2021/01/04 06:29:37;;;;;;;4.60;2.90;;;3.10;99.90;;;;;;5004873;28;20580;-64
2021/01/04 06:32:08;;;;;;;5.10;3.60;;;3.20;99.90;;;;;;5004400;28;20489;-63
2021/01/04 06:34:37;;;;;;;5.47;4.20;;;3.20;99.90;;;;;;5004327;28;20454;-64
2021/01/04 06:37:11;;;;;;;6.20;3.50;;;3.20;99.90;;;;;;5004403;28;20452;-64
2021/01/04 06:39:37;;;;;;;6.43;4.00;;;3.10;99.90;;;;;;4998251;28;20538;-64
2021/01/04 06:42:18;;;;;;;5.77;4.20;;;3.10;99.90;;;;;;4984514;28;20534;-64
2021/01/04 06:45:05;;;;;;;5.50;3.23;;;3.10;99.90;;;;;;4984334;28;20513;-65
2021/01/04 06:48:00;;;;;;;5.23;3.70;;;3.10;99.90;;;;;;4985538;28;20485;-65
2021/01/04 06:50:34;;;;;;;5.50;4.23;;;3.10;99.90;;;;;;4984659;28;20435;-64
2021/01/04 06:53:38;;;;;;;5.03;3.50;;;3.20;99.90;;;;;;4982946;28;20483;-63
2021/01/04 06:56:43;;;;;;;3.93;3.27;;;3.20;99.90;;;;;;4982356;28;20454;-63
2021/01/04 06:59:38;;;;;;;4.73;3.30;;;3.20;99.90;;;;;;4985102;28;20525;-63
2021/01/04 07:02:39;;;;;;;3.53;2.97;;;3.10;99.90;;;;;;4989628;28;20474;-63
2021/01/04 07:05:39;;;;;;;5.83;4.13;;;3.20;99.90;;;;;;4985966;28;20910;-64
2021/01/04 07:08:47;;;;;;;6.40;4.60;;;3.30;99.90;;;;;;4943873;28;20502;-64
2021/01/04 07:11:31;;;;;;;5.77;4.90;;;3.30;99.90;;;;;;4947827;28;20490;-64
2021/01/04 07:14:14;;;;;;;7.60;4.43;;;3.40;99.90;;;;;;4982366;28;20896;-63
2021/01/04 07:17:00;;;;;;;5.67;4.10;;;3.40;99.90;;;;;;4981958;28;20803;-64
2021/01/04 07:19:47;;;;;;;6.50;4.87;;;3.30;99.90;;;;;;4983302;28;20457;-63
2021/01/04 07:22:20;;;;;;;11.70;5.10;;;3.30;99.90;;;;;;4982453;28;20505;-63
2021/01/04 07:25:05;;;;;;;11.87;4.20;;;3.30;99.90;;;;;;4982413;28;20454;-63
2021/01/04 07:27:50;;;;;;;5.20;4.20;;;3.30;99.90;;;;;;4982532;28;20503;-63
2021/01/04 07:30:33;;;;;;;6.77;4.40;;;3.40;99.90;;;;;;4982612;28;20457;-63
2021/01/04 07:33:04;;;;;;;9.33;5.37;;;3.30;99.90;;;;;;4983672;28;20470;-63
2021/01/04 07:35:36;;;;;;;6.50;5.10;;;3.30;99.90;;;;;;4982576;28;20466;-64
2021/01/04 07:38:20;;;;;;;4.33;3.20;;;3.30;99.90;;;;;;4982544;28;20447;-64
2021/01/04 07:41:00;;;;;;;7.60;3.93;;;3.30;99.90;;;;;;4982974;28;20553;-64
2021/01/04 07:43:59;;;;;;;5.10;3.70;;;3.30;99.90;;;;;;4982686;28;20482;-65
2021/01/04 07:47:08;;;;;;;10.10;4.00;;;3.30;99.90;;;;;;4968183;28;20525;-64
2021/01/04 07:50:14;;;;;;;7.10;4.97;;;3.30;99.90;;;;;;5002497;28;20509;-64
2021/01/04 07:53:21;;;;;;;5.27;3.80;;;3.30;99.90;;;;;;5011011;28;20434;-64
2021/01/04 07:56:23;;;;;;;8.17;4.63;;;3.30;99.90;;;;;;5010515;28;20516;-65
2021/01/04 07:59:37;;;;;;;6.37;4.33;;;3.40;99.90;;;;;;5009784;28;20485;-65
2021/01/04 08:02:46;;;;;;;8.10;5.40;;;3.30;99.90;;;;;;4986819;28;20474;-64
2021/01/04 08:05:31;;;;;;;7.43;5.20;;;3.30;99.90;;;;;;4992977;28;20464;-65
2021/01/04 08:08:28;;;;;;;10.30;4.17;;;3.30;99.90;;;;;;4988602;28;20438;-63
2021/01/04 08:11:33;;;;;;;7.10;5.37;;;3.30;99.90;;;;;;4985683;28;20443;-63
2021/01/04 08:14:51;;;;;;;5.80;5.13;;;3.30;99.90;;;;;;4966038;28;20444;-65
2021/01/04 08:17:34;;;;;;;8.20;5.10;;;3.40;99.90;;;;;;5009772;28;20454;-64
2021/01/04 08:20:06;;;;;;;6.17;4.60;;;3.40;99.90;;;;;;5005267;28;20489;-63
2021/01/04 08:23:02;;;;;;;9.17;5.10;;;3.30;99.90;;;;;;4981707;28;20559;-64
2021/01/04 08:25:39;;;;;;;7.73;5.17;;;3.40;99.90;;;;;;4976332;28;20502;-64
2021/01/04 08:28:17;;;;;;;7.93;5.33;;;3.40;99.90;;;;;;4993303;28;20532;-64
2021/01/04 08:30:53;;;;;;;5.27;4.37;;;3.40;99.90;;;;;;5001754;28;20449;-64
2021/01/04 08:33:29;;;;;;;12.23;6.73;;;3.40;99.90;;;;;;5001511;28;20452;-63
2021/01/04 08:35:55;;;;;;;7.57;4.67;;;3.40;99.90;;;;;;5001940;28;20517;-64
2021/01/04 08:38:38;;;;;;;9.10;5.17;;;3.40;99.90;;;;;;5008249;28;20473;-65
2021/01/04 08:41:22;;;;;;;9.50;5.37;;;3.40;99.90;;;;;;5006718;28;20859;-64
2021/01/04 08:43:51;;;;;;;9.33;5.40;;;3.40;99.90;;;;;;5007970;28;20497;-63
2021/01/04 08:46:33;;;;;;;9.77;5.60;;;3.40;99.90;;;;;;5007854;28;20462;-64
2021/01/04 08:49:15;;;;;;;7.93;4.80;;;3.40;99.90;;;;;;5012727;28;20761;-65
2021/01/04 08:51:43;;;;;;;11.27;5.00;;;3.40;99.90;;;;;;5006918;28;20446;-63
2021/01/04 08:54:25;;;;;;;8.03;5.43;;;3.40;99.90;;;;;;5007463;28;20493;-65
2021/01/04 08:56:54;;;;;;;11.83;6.40;;;3.40;99.90;;;;;;5008210;28;20469;-63
2021/01/04 08:59:23;;;;;;;7.60;5.47;;;3.30;99.90;;;;;;5007713;28;20541;-64
2021/01/04 09:01:54;;;;;;;7.13;5.03;;;3.40;99.90;;;;;;5007556;28;20532;-65
2021/01/04 09:04:33;;;;;;;10.07;6.50;;;3.30;99.90;;;;;;4988646;28;20906;-63
2021/01/04 09:07:07;;;;;;;6.80;4.77;;;3.30;99.90;;;;;;4988539;28;20546;-64
2021/01/04 09:09:38;;;;;;;7.87;5.60;;;3.30;99.90;;;;;;4988958;28;20542;-63
2021/01/04 09:12:08;;;;;;;8.23;5.70;;;3.30;99.90;;;;;;4989121;28;20488;-64
2021/01/04 09:14:39;;;;;;;11.63;7.30;;;3.30;99.90;;;;;;4988844;28;20447;-65
2021/01/04 09:17:19;;;;;;;7.80;5.80;;;3.30;99.90;;;;;;4992595;28;20459;-64
2021/01/04 09:19:51;;;;;;;12.60;7.40;;;3.40;99.90;;;;;;4999778;28;20831;-65
2021/01/04 09:22:22;;;;;;;8.13;5.90;;;3.40;99.90;;;;;;4996726;28;20492;-64
2021/01/04 09:24:48;;;;;;;10.37;7.17;;;3.30;99.90;;;;;;5009214;28;20580;-64
2021/01/04 09:27:22;;;;;;;11.20;8.43;;;3.30;99.90;;;;;;5006197;28;20509;-63
2021/01/04 09:29:54;;;;;;;11.03;7.23;;;3.40;99.90;;;;;;4987685;28;20530;-64
2021/01/04 09:32:30;;;;;;;12.23;8.40;;;3.40;99.90;;;;;;4980948;28;20943;-63
2021/01/04 09:34:58;;;;;;;13.47;8.67;;;3.40;99.90;;;;;;4988038;28;20442;-64
2021/01/04 09:37:27;;;;;;;12.53;6.43;;;3.40;99.90;;;;;;4988030;28;20493;-63
2021/01/04 09:40:01;;;;;;;11.80;7.57;;;3.40;99.90;;;;;;4987370;28;20509;-67
2021/01/04 09:42:29;;;;;;;11.53;6.80;;;3.80;99.90;;;;;;4990303;28;20477;-63
2021/01/04 09:45:07;;;;;;;12.80;7.60;;;4.10;99.90;;;;;;5002111;28;20453;-67
2021/01/04 09:47:38;;;;;;;11.03;6.30;;;4.30;99.90;;;;;;5016100;28;20430;-63
2021/01/04 09:50:15;;;;;;;10.63;6.37;;;4.30;99.90;;;;;;5002858;28;20485;-66
2021/01/04 09:52:47;;;;;;;12.20;6.97;;;4.10;99.90;;;;;;5008416;28;20480;-66
2021/01/04 09:55:14;;;;;;;12.37;8.70;;;4.10;99.90;;;;;;5014782;28;20559;-68
2021/01/04 09:57:43;;;;;;;10.87;7.20;;;4.00;99.90;;;;;;5008498;28;20450;-70
2021/01/04 10:00:24;;;;;;;11.63;7.07;;;3.80;99.90;;;;;;4999565;28;20514;-67
2021/01/04 10:02:59;;;;;;;14.40;8.37;;;3.80;99.90;;;;;;5002938;28;20488;-64
2021/01/04 10:05:34;;;;;;;15.03;7.57;;;3.70;99.90;;;;;;5003678;28;20460;-64
2021/01/04 10:08:02;;;;;;;11.67;7.43;;;3.60;99.90;;;;;;5011313;28;20460;-65
2021/01/04 10:10:28;;;;;;;11.40;7.63;;;3.60;99.90;;;;;;5008374;28;20465;-65
2021/01/04 10:13:06;;;;;;;13.43;7.37;;;3.60;99.90;;;;;;5005975;28;20477;-65
2021/01/04 10:15:33;;;;;;;18.30;8.70;;;3.60;99.90;;;;;;5016197;28;20449;-65
2021/01/04 10:18:12;;;;;;;13.23;7.40;;;3.60;99.90;;;;;;5006406;28;20493;-63
2021/01/04 10:20:45;;;;;;;18.43;7.90;;;3.60;99.90;;;;;;5017315;28;20457;-63
2021/01/04 10:23:20;;;;;;;13.67;8.07;;;3.60;99.90;;;;;;5006415;28;20544;-63
2021/01/04 10:25:52;;;;;;;14.50;8.37;;;3.60;99.90;;;;;;5014436;28;20472;-64
2021/01/04 10:28:18;;;;;;;9.90;7.70;;;3.60;99.90;;;;;;5012049;28;20505;-63
2021/01/04 10:30:45;;;;;;;9.80;8.23;;;3.60;99.90;;;;;;5018490;28;20501;-66
2021/01/04 10:33:23;;;;;;;14.40;7.33;;;3.70;99.90;;;;;;5016169;28;20536;-64
2021/01/04 10:36:02;;;;;;;11.90;7.97;;;3.60;99.90;;;;;;5012217;28;20606;-61
2021/01/04 10:38:29;;;;;;;10.40;6.40;;;3.60;99.90;;;;;;5022665;28;20441;-63
2021/01/04 10:40:56;;;;;;;14.57;8.30;;;3.60;99.90;;;;;;5030187;28;20493;-64
2021/01/04 10:43:25;;;;;;;12.97;6.83;;;3.60;99.90;;;;;;5024111;28;20512;-64
2021/01/04 10:45:52;;;;;;;11.77;7.27;;;3.60;99.90;;;;;;5021863;28;20461;-64
2021/01/04 10:48:22;;;;;;;12.03;7.70;;;3.60;99.90;;;;;;5010418;28;20910;-65
2021/01/04 10:50:51;;;;;;;15.90;7.20;;;3.50;99.90;;;;;;5001667;28;20442;-64
2021/01/04 10:53:32;;;;;;;11.80;7.23;;;3.50;99.90;;;;;;5002474;28;20457;-65
2021/01/04 10:56:23;;;;;;;14.50;8.20;;;3.50;99.90;;;;;;5001492;28;20484;-65
2021/01/04 10:58:58;;;;;;;17.93;8.57;;;3.60;99.90;;;;;;5001276;28;20473;-65
2021/01/04 11:01:36;;;;;;;14.47;7.50;;;3.50;99.90;;;;;;5004635;28;20501;-64
2021/01/04 11:04:08;;;;;;;12.67;7.70;;;3.60;99.90;;;;;;5000124;28;20465;-64
2021/01/04 11:06:37;;;;;;;11.73;7.00;;;3.60;99.90;;;;;;5001017;28;20446;-65
2021/01/04 11:09:14;;;;;;;12.23;6.87;;;3.60;99.90;;;;;;4995574;28;20532;-64
2021/01/04 11:11:43;;;;;;;11.43;6.93;;;3.60;99.90;;;;;;5005587;28;20450;-62
2021/01/04 11:14:14;;;;;;;19.37;7.67;;;3.60;99.90;;;;;;5016961;28;20441;-67
2021/01/04 11:16:44;;;;;;;13.20;8.60;;;3.60;99.90;;;;;;5010966;28;20524;-64
2021/01/04 11:19:10;;;;;;;12.60;7.20;;;3.60;99.90;;;;;;5006479;28;20453;-66
2021/01/04 11:21:39;;;;;;;14.40;8.73;;;3.60;99.90;;;;;;4995276;28;20762;-67
2021/01/04 11:24:07;;;;;;;10.57;7.80;;;3.60;99.90;;;;;;5008771;28;20491;-67
2021/01/04 11:26:34;;;;;;;9.63;6.50;;;3.60;99.90;;;;;;5010983;28;20512;-64
2021/01/04 11:29:00;;;;;;;18.13;8.27;;;3.60;99.90;;;;;;5001946;28;20482;-63
2021/01/04 11:31:31;;;;;;;19.77;9.40;;;3.70;99.90;;;;;;5014030;28;20512;-63
2021/01/04 11:33:58;;;;;;;11.67;7.60;;;3.70;99.90;;;;;;5012961;28;20461;-65
2021/01/04 11:36:25;;;;;;;14.60;7.70;;;3.70;99.90;;;;;;5002678;28;21173;-62
2021/01/04 11:38:51;;;;;;;11.73;8.23;;;3.70;99.90;;;;;;5005570;28;20557;-65
2021/01/04 11:41:18;;;;;;;16.53;7.67;;;3.70;99.90;;;;;;5010362;28;20532;-64
2021/01/04 11:43:47;;;;;;;16.60;8.23;;;3.70;99.90;;;;;;5018806;28;20529;-64
2021/01/04 11:46:17;;;;;;;12.53;8.10;;;3.70;99.90;;;;;;5014463;28;20462;-63
2021/01/04 11:48:44;;;;;;;20.13;8.07;;;3.70;99.90;;;;;;5000392;28;20448;-63
2021/01/04 11:51:19;;;;;;;23.17;8.93;;;3.70;99.90;;;;;;5014182;28;20835;-63
2021/01/04 11:53:47;;;;;;;12.50;7.83;;;3.70;99.90;;;;;;5013563;28;20429;-63
2021/01/04 11:56:14;;;;;;;28.47;15.03;;;3.70;99.90;;;;;;5009887;28;20472;-64
2021/01/04 11:58:40;;;;;;;19.40;7.97;;;3.60;99.90;;;;;;5021140;28;20484;-65
2021/01/04 12:01:08;;;;;;;25.10;8.83;;;3.60;99.90;;;;;;5005814;28;20450;-64
2021/01/04 12:03:35;;;;;;;13.03;7.50;;;3.60;99.90;;;;;;5020714;28;20472;-66
2021/01/04 12:06:02;;;;;;;11.10;7.07;;;3.60;99.90;;;;;;5013723;28;20453;-66
2021/01/04 12:08:28;;;;;;;15.93;7.80;;;3.50;99.90;;;;;;5017903;28;20458;-65
2021/01/04 12:10:56;;;;;;;14.60;7.70;;;3.50;99.90;;;;;;5013739;28;20482;-65
2021/01/04 12:13:22;;;;;;;11.77;7.23;;;3.50;99.90;;;;;;5011114;28;20771;-67
2021/01/04 12:15:49;;;;;;;15.93;8.47;;;3.50;99.90;;;;;;5010984;28;20515;-63
2021/01/04 12:18:16;;;;;;;14.60;8.27;;;3.50;99.90;;;;;;5022173;28;20445;-63
2021/01/04 12:20:44;;;;;;;13.70;7.80;;;3.50;99.90;;;;;;5018309;28;20452;-67
2021/01/04 12:23:11;;;;;;;23.17;9.50;;;3.50;99.90;;;;;;5009096;28;20529;-65
2021/01/04 12:25:37;;;;;;;21.90;8.63;;;3.50;99.90;;;;;;5020462;28;20470;-64
2021/01/04 12:28:04;;;;;;;13.53;8.20;;;3.50;99.90;;;;;;5009284;28;20514;-64
2021/01/04 12:30:33;;;;;;;14.60;7.43;;;3.50;99.90;;;;;;5005506;28;20914;-65
2021/01/04 12:33:01;;;;;;;13.70;7.07;;;3.50;99.90;;;;;;5011243;28;20489;-66
2021/01/04 12:35:29;;;;;;;23.80;8.93;;;3.50;99.90;;;;;;5023425;28;20846;-66
2021/01/04 12:37:55;;;;;;;15.90;9.30;;;3.50;99.90;;;;;;5028624;28;20444;-64
2021/01/04 12:40:29;;;;;;;18.77;8.73;;;3.50;99.90;;;;;;5016273;28;20954;-72
2021/01/04 12:42:57;;;;;;;16.50;9.30;;;3.40;99.90;;;;;;5011679;28;20584;-70
2021/01/04 12:45:24;;;;;;;15.07;7.80;;;3.40;99.90;;;;;;5003150;28;20906;-78
2021/01/04 12:47:50;;;;;;;16.30;8.27;;;3.50;99.90;;;;;;5018141;28;20464;-67
2021/01/04 12:50:17;;;;;;;15.97;8.60;;;3.40;99.90;;;;;;5019803;28;20476;-66
2021/01/04 12:52:45;;;;;;;14.00;7.07;;;3.40;99.90;;;;;;5020948;28;20449;-66
2021/01/04 12:55:12;;;;;;;15.90;8.93;;;3.40;99.90;;;;;;5019755;28;20464;-67
2021/01/04 12:57:41;;;;;;;19.73;9.27;;;3.50;99.90;;;;;;5018627;28;20480;-67
2021/01/04 13:00:11;;;;;;;14.80;8.83;;;3.50;99.90;;;;;;5008945;28;20431;-66
2021/01/04 13:02:37;;;;;;;13.50;7.87;;;3.50;99.90;;;;;;5008948;28;20890;-67
2021/01/04 13:05:05;;;;;;;13.67;8.90;;;3.50;99.90;;;;;;4989408;28;20435;-66
2021/01/04 13:07:32;;;;;;;14.10;7.30;;;3.50;99.90;;;;;;4990302;28;20454;-67
2021/01/04 13:21:55;;;;;;;18.27;10.40;;;3.60;99.90;;;;;;5149229;27;21154;-61
2021/01/04 13:24:21;;;;;;;19.57;11.30;;;3.90;99.90;;;;;;5147207;27;20479;-60
2021/01/04 13:26:50;;;;;;;15.80;9.80;;;3.80;99.90;;;;;;5147250;27;20447;-60
2021/01/04 13:29:18;;;;;;;17.63;10.50;;;3.70;99.90;;;;;;5146567;27;20444;-60
2021/01/04 13:31:46;;;;;;;27.50;13.43;;;3.70;99.90;;;;;;5146421;28;20826;-59
2021/01/04 13:34:13;;;;;;;22.57;11.67;;;4.20;99.90;;;;;;5145359;28;21013;-61
2021/01/04 13:36:39;;;;;;;14.40;9.30;;;4.30;99.90;;;;;;5144613;28;20444;-62
2021/01/04 13:39:08;;;;;;;27.60;13.17;;;4.40;99.90;;;;;;5143611;28;20536;-59
2021/01/04 13:41:37;;;;;;;15.20;9.83;;;4.30;99.90;;;;;;5144742;28;20451;-60
2021/01/04 13:44:04;;;;;;;18.67;10.33;;;4.30;99.90;;;;;;5145318;28;20505;-60
2021/01/04 13:46:32;;;;;;;20.47;10.60;;;4.20;99.90;;;;;;5137125;27;20534;-60
2021/01/04 13:48:58;;;;;;;19.60;11.50;;;4.10;99.90;;;;;;5135898;28;20481;-60
2021/01/04 13:51:25;;;;;;;16.40;10.77;;;4.10;99.90;;;;;;5135748;28;20475;-59